createdAt,value
2022-10-17T00:00:35.629Z,2.45
2022-10-17T00:03:02.403Z,2.70
2022-10-17T00:05:29.217Z,2.90
2022-10-17T00:07:55.898Z,2.60
2022-10-17T00:10:22.708Z,2.65
2022-10-17T00:12:51.170Z,2.30
2022-10-17T00:15:20.179Z,2.30
2022-10-17T00:17:47.290Z,2.20
2022-10-17T00:20:15.682Z,2.30
2022-10-17T00:22:43.086Z,2.40
2022-10-17T00:25:11.119Z,2.15
2022-10-17T00:27:40.148Z,2.90
2022-10-17T00:30:10.065Z,2.50
2022-10-17T00:32:36.614Z,2.60
2022-10-17T00:35:04.452Z,2.40
2022-10-17T00:37:31.985Z,2.70
2022-10-17T00:39:59.354Z,3.00
2022-10-17T00:42:27.645Z,2.47
2022-10-17T00:44:59.494Z,2.55
2022-10-17T00:47:26.402Z,2.40
2022-10-17T00:49:53.135Z,2.50
2022-10-17T00:52:23.868Z,2.30
2022-10-17T00:55:13.569Z,2.35
2022-10-17T00:57:42.331Z,2.20
2022-10-17T01:00:10.743Z,2.38
2022-10-17T01:02:38.078Z,2.45
2022-10-17T01:05:06.197Z,2.65
2022-10-17T01:07:37.284Z,2.60
2022-10-17T01:10:06.355Z,2.67
2022-10-17T01:12:54.065Z,2.70
2022-10-17T01:15:23.776Z,2.47
2022-10-17T01:17:50.267Z,2.30
2022-10-17T01:20:54.400Z,2.25
2022-10-17T01:23:23.658Z,2.10
2022-10-17T01:26:28.831Z,2.47
2022-10-17T01:29:14.123Z,2.60
2022-10-17T01:31:48.800Z,2.42
2022-10-17T01:34:28.254Z,2.88
2022-10-17T01:37:12.005Z,2.67
2022-10-17T01:39:48.874Z,2.97
2022-10-17T01:42:30.794Z,2.88
2022-10-17T01:45:21.316Z,2.72
2022-10-17T01:47:51.553Z,2.83
2022-10-17T01:50:29.218Z,2.67
2022-10-17T01:53:02.058Z,3.13
2022-10-17T01:55:42.460Z,2.75
2022-10-17T01:58:19.531Z,2.55
2022-10-17T02:00:47.808Z,3.25
2022-10-17T02:03:18.826Z,2.80
2022-10-17T02:05:46.093Z,2.55
2022-10-17T02:08:13.339Z,2.95
2022-10-17T02:11:03.442Z,2.80
2022-10-17T02:13:39.266Z,2.70
2022-10-17T02:16:05.871Z,2.47
2022-10-17T02:19:01.221Z,2.72
2022-10-17T02:21:43.371Z,2.72
2022-10-17T02:24:27.933Z,2.97
2022-10-17T02:27:13.577Z,2.95
2022-10-17T02:29:50.117Z,2.80
2022-10-17T02:32:34.882Z,3.00
2022-10-17T02:35:04.521Z,3.20
2022-10-17T02:37:32.442Z,2.60
2022-10-17T02:40:01.898Z,2.50
2022-10-17T02:42:30.539Z,2.70
2022-10-17T02:45:01.634Z,2.40
2022-10-17T02:47:35.274Z,2.22
2022-10-17T02:50:02.628Z,2.83
2022-10-17T02:53:01.261Z,2.45
2022-10-17T02:55:34.025Z,2.40
2022-10-17T02:58:12.152Z,2.53
2022-10-17T03:00:40.959Z,2.67
2022-10-17T03:03:30.457Z,2.53
2022-10-17T03:06:00.932Z,3.08
2022-10-17T03:08:27.629Z,2.70
2022-10-17T03:10:55.694Z,3.00
2022-10-17T03:13:22.915Z,2.60
2022-10-17T03:15:49.889Z,2.60
2022-10-17T03:18:17.272Z,2.42
2022-10-17T03:20:45.001Z,3.15
2022-10-17T03:23:11.529Z,2.50
2022-10-17T03:25:38.396Z,2.80
2022-10-17T03:28:05.583Z,2.50
2022-10-17T03:30:32.894Z,2.45
2022-10-17T03:33:00.211Z,2.35
2022-10-17T03:35:27.405Z,2.55
2022-10-17T03:37:55.813Z,2.78
2022-10-17T03:40:23.704Z,2.60
2022-10-17T03:42:50.707Z,2.85
2022-10-17T03:45:17.348Z,2.50
2022-10-17T03:47:45.414Z,3.17
2022-10-17T03:50:12.094Z,2.95
2022-10-17T03:52:39.542Z,2.55
2022-10-17T03:55:06.422Z,2.42
2022-10-17T03:57:35.222Z,2.85
2022-10-17T04:00:02.369Z,2.50
2022-10-17T04:02:29.979Z,2.75
2022-10-17T04:04:57.504Z,2.60
2022-10-17T04:07:24.056Z,3.00
2022-10-17T04:09:50.644Z,2.80
2022-10-17T04:12:19.432Z,2.67
2022-10-17T04:14:46.419Z,2.83
2022-10-17T04:17:13.997Z,2.53
2022-10-17T04:19:40.667Z,2.80
2022-10-17T04:22:07.215Z,2.97
2022-10-17T04:24:36.310Z,2.58
2022-10-17T04:27:05.863Z,2.67
2022-10-17T04:29:36.212Z,2.40
2022-10-17T04:32:24.186Z,2.90
2022-10-17T04:35:03.994Z,2.75
2022-10-17T04:37:31.967Z,2.55
2022-10-17T04:40:01.564Z,2.70
2022-10-17T04:42:31.797Z,2.58
2022-10-17T04:44:59.161Z,2.67
2022-10-17T04:47:26.712Z,2.60
2022-10-17T04:49:53.298Z,2.80
2022-10-17T04:52:21.865Z,2.67
2022-10-17T04:54:49.989Z,2.83
2022-10-17T04:57:18.018Z,2.80
2022-10-17T04:59:53.611Z,2.90
2022-10-17T05:02:30.440Z,3.72
2022-10-17T05:04:57.514Z,2.92
2022-10-17T05:07:24.090Z,3.40
2022-10-17T05:10:00.112Z,3.28
2022-10-17T05:12:27.074Z,3.20
2022-10-17T05:14:54.106Z,3.55
2022-10-17T05:17:22.282Z,3.78
2022-10-17T05:19:49.420Z,3.30
2022-10-17T05:22:16.878Z,3.60
2022-10-17T05:24:43.679Z,3.20
2022-10-17T05:27:10.965Z,3.35
2022-10-17T05:29:37.544Z,3.72
2022-10-17T05:32:11.316Z,3.42
2022-10-17T05:34:38.035Z,3.30
2022-10-17T05:37:04.924Z,3.72
2022-10-17T05:39:32.581Z,3.42
2022-10-17T05:41:59.831Z,3.25
2022-10-17T05:44:26.763Z,3.40
2022-10-17T05:46:56.501Z,3.72
2022-10-17T05:49:39.744Z,3.72
2022-10-17T05:52:10.171Z,4.32
2022-10-17T05:54:50.612Z,3.97
2022-10-17T05:57:17.344Z,3.60
2022-10-17T05:59:43.993Z,4.00
2022-10-17T06:02:13.397Z,3.80
2022-10-17T06:04:40.556Z,3.65
2022-10-17T06:07:07.237Z,3.33
2022-10-17T06:09:34.425Z,3.75
2022-10-17T06:12:02.118Z,3.70
2022-10-17T06:14:29.789Z,3.50
2022-10-17T06:17:00.623Z,3.50
2022-10-17T06:19:27.372Z,3.58
2022-10-17T06:21:53.871Z,3.80
2022-10-17T06:24:22.614Z,3.35
2022-10-17T06:26:51.654Z,3.15
2022-10-17T06:29:20.238Z,3.30
2022-10-17T06:31:50.046Z,3.30
2022-10-17T06:34:17.245Z,3.55
2022-10-17T06:36:44.764Z,3.70
2022-10-17T06:39:11.787Z,3.58
2022-10-17T06:41:55.495Z,3.80
2022-10-17T06:44:35.534Z,3.10
2022-10-17T06:47:22.459Z,3.33
2022-10-17T06:49:51.525Z,3.55
2022-10-17T06:52:43.008Z,3.60
2022-10-17T06:55:32.502Z,3.60
2022-10-17T06:58:21.358Z,3.45
2022-10-17T07:01:13.319Z,3.38
2022-10-17T07:03:41.067Z,3.17
2022-10-17T07:06:09.101Z,3.35
2022-10-17T07:08:35.694Z,3.33
2022-10-17T07:11:15.012Z,2.90
2022-10-17T07:13:42.700Z,2.90
2022-10-17T07:16:09.905Z,3.03
2022-10-17T07:18:38.459Z,2.60
2022-10-17T07:21:06.985Z,2.90
2022-10-17T07:23:35.934Z,2.60
2022-10-17T07:26:05.998Z,2.95
2022-10-17T07:28:37.440Z,2.67
2022-10-17T07:31:15.921Z,2.85
2022-10-17T07:33:43.258Z,2.40
2022-10-17T07:36:10.334Z,2.35
2022-10-17T07:38:37.184Z,2.70
2022-10-17T07:41:07.390Z,2.28
2022-10-17T07:43:34.989Z,2.35
2022-10-17T07:46:02.960Z,2.40
2022-10-17T07:48:30.159Z,2.20
2022-10-17T07:50:57.028Z,2.30
2022-10-17T07:53:23.993Z,2.50
2022-10-17T07:55:50.594Z,2.78
2022-10-17T07:58:17.244Z,2.30
2022-10-17T08:00:44.024Z,2.25
2022-10-17T08:03:11.004Z,2.33
2022-10-17T08:05:37.510Z,2.30
2022-10-17T08:08:04.357Z,2.33
2022-10-17T08:10:30.878Z,2.58
2022-10-17T08:12:58.582Z,2.30
2022-10-17T08:15:29.386Z,2.75
2022-10-17T08:17:58.881Z,2.03
2022-10-17T08:20:25.678Z,2.33
2022-10-17T08:22:55.783Z,2.47
2022-10-17T08:25:22.960Z,2.25
2022-10-17T08:27:50.175Z,2.15
2022-10-17T08:30:17.714Z,2.10
2022-10-17T08:32:44.924Z,2.13
2022-10-17T08:35:11.875Z,2.00
2022-10-17T08:37:41.599Z,1.98
2022-10-17T08:40:19.358Z,1.70
2022-10-17T08:43:07.162Z,1.95
2022-10-17T08:45:40.407Z,1.90
2022-10-17T08:48:14.968Z,1.65
2022-10-17T08:50:56.573Z,1.75
2022-10-17T08:53:32.015Z,1.50
2022-10-17T08:56:07.258Z,1.92
2022-10-17T08:58:38.356Z,1.83
2022-10-17T09:01:09.029Z,1.67
2022-10-17T09:04:05.659Z,1.60
2022-10-17T09:06:37.488Z,1.90
2022-10-17T09:09:31.600Z,2.03
2022-10-17T09:11:58.263Z,1.95
2022-10-17T09:14:46.668Z,1.98
2022-10-17T09:17:41.106Z,1.80
2022-10-17T09:20:20.828Z,1.83
2022-10-17T09:25:29.908Z,1.70
2022-10-17T09:28:06.361Z,1.90
2022-10-17T09:30:46.434Z,1.58
2022-10-17T09:33:34.642Z,1.65
2022-10-17T09:36:13.228Z,1.60
2022-10-17T09:38:43.487Z,1.83
2022-10-17T09:41:45.494Z,1.65
2022-10-17T09:44:18.283Z,1.45
2022-10-17T09:47:14.556Z,1.63
2022-10-17T09:49:44.025Z,1.48
2022-10-17T09:52:27.978Z,1.75
2022-10-17T09:55:04.120Z,1.45
2022-10-17T09:57:53.711Z,1.42
2022-10-17T10:00:27.001Z,1.63
2022-10-17T10:03:18.200Z,1.55
2022-10-17T10:06:03.522Z,1.40
2022-10-17T10:08:36.060Z,1.58
2022-10-17T10:11:13.855Z,1.40
2022-10-17T10:13:42.409Z,1.50
2022-10-17T10:16:16.900Z,1.67
2022-10-17T10:18:45.481Z,1.40
2022-10-17T10:21:19.385Z,1.55
2022-10-17T10:24:09.211Z,1.50
2022-10-17T10:26:40.279Z,1.30
2022-10-17T10:29:19.469Z,1.52
2022-10-17T10:31:47.127Z,1.60
2022-10-17T10:34:19.809Z,1.40
2022-10-17T10:36:52.036Z,1.48
2022-10-17T10:39:33.272Z,1.60
2022-10-17T10:42:02.628Z,1.40
2022-10-17T10:44:31.976Z,1.90
2022-10-17T10:47:21.609Z,1.50
2022-10-17T10:49:51.655Z,1.58
2022-10-17T10:52:33.968Z,1.40
2022-10-17T10:55:15.876Z,1.23
2022-10-17T10:57:45.698Z,1.48
2022-10-17T11:00:21.363Z,1.52
2022-10-17T11:02:57.102Z,1.60
2022-10-17T11:05:48.172Z,1.35
2022-10-17T11:08:34.004Z,1.48
2022-10-17T11:11:14.139Z,1.48
2022-10-17T11:13:49.543Z,1.48
2022-10-17T11:16:29.450Z,1.45
2022-10-17T11:19:21.429Z,1.63
2022-10-17T11:22:04.988Z,1.35
2022-10-17T11:24:40.105Z,1.13
2022-10-17T11:27:07.964Z,1.52
2022-10-17T11:29:37.523Z,1.40
2022-10-17T11:32:11.811Z,1.63
2022-10-17T11:34:46.444Z,1.20
2022-10-17T11:37:22.842Z,1.40
2022-10-17T11:40:18.088Z,1.42
2022-10-17T11:42:59.940Z,1.35
2022-10-17T11:45:30.793Z,1.42
2022-10-17T11:48:06.728Z,1.20
2022-10-17T11:53:37.517Z,1.48
2022-10-17T11:56:04.351Z,1.40
2022-10-17T11:58:42.027Z,1.40
2022-10-17T12:01:11.501Z,1.50
2022-10-17T12:03:41.321Z,1.60
2022-10-17T12:06:38.699Z,1.70
2022-10-17T12:09:15.506Z,1.30
2022-10-17T12:11:59.910Z,1.52
2022-10-17T12:14:45.843Z,1.35
2022-10-17T12:17:29.642Z,1.30
2022-10-17T12:20:21.599Z,1.40
2022-10-17T12:22:50.003Z,1.52
2022-10-17T12:25:20.907Z,1.38
2022-10-17T12:27:49.657Z,1.40
2022-10-17T12:30:27.046Z,1.15
2022-10-17T12:33:17.400Z,1.40
2022-10-17T12:35:44.082Z,1.30
2022-10-17T12:38:19.547Z,1.20
2022-10-17T12:40:49.167Z,1.40
2022-10-17T12:43:15.711Z,1.40
2022-10-17T12:46:01.963Z,1.27
2022-10-17T12:48:34.637Z,1.40
2022-10-17T12:51:35.299Z,1.38
2022-10-17T12:54:00.091Z,1.30
2022-10-17T12:56:38.093Z,1.20
2022-10-17T12:59:22.018Z,1.42
2022-10-17T13:02:01.998Z,1.20
2022-10-17T13:04:30.513Z,1.30
2022-10-17T13:06:59.007Z,1.30
2022-10-17T13:09:52.168Z,1.60
2022-10-17T13:12:25.361Z,1.42
2022-10-17T13:14:53.991Z,1.40
2022-10-17T13:17:26.813Z,1.20
2022-10-17T13:19:54.215Z,1.15
2022-10-17T13:22:29.395Z,1.30
2022-10-17T13:25:28.447Z,1.40
2022-10-17T13:28:07.730Z,1.50
2022-10-17T13:30:36.359Z,1.40
2022-10-17T13:33:03.311Z,1.30
2022-10-17T13:35:58.772Z,1.23
2022-10-17T13:38:26.299Z,1.50
2022-10-17T13:41:01.342Z,1.60
2022-10-17T13:43:31.073Z,1.30
2022-10-17T13:46:13.746Z,1.50
2022-10-17T13:48:48.515Z,1.20
2022-10-17T13:51:15.031Z,1.20
2022-10-17T13:53:41.825Z,1.27
2022-10-17T13:56:28.420Z,1.50
2022-10-17T13:58:58.890Z,1.20
2022-10-17T14:01:28.025Z,1.30
2022-10-17T14:04:07.942Z,4.85
2022-10-17T14:06:45.028Z,2.10
2022-10-17T14:09:25.368Z,1.83
2022-10-17T14:12:07.432Z,1.30
2022-10-17T14:14:46.398Z,1.25
2022-10-17T14:17:26.663Z,1.58
2022-10-17T14:20:14.180Z,1.40
2022-10-17T14:22:47.276Z,1.25
2022-10-17T14:25:38.359Z,1.40
2022-10-17T14:28:11.180Z,1.42
2022-10-17T14:30:59.106Z,1.40
2022-10-17T14:33:30.961Z,1.30
2022-10-17T14:35:59.638Z,1.38
2022-10-17T14:38:28.003Z,1.30
2022-10-17T14:41:23.566Z,1.50
2022-10-17T14:43:56.983Z,1.40
2022-10-17T14:46:24.603Z,1.50
2022-10-17T14:48:53.947Z,1.30
2022-10-17T14:51:21.002Z,1.77
2022-10-17T14:54:19.221Z,1.30
2022-10-17T14:56:51.364Z,1.20
2022-10-17T14:59:25.603Z,1.50
2022-10-17T15:02:02.950Z,1.30
2022-10-17T15:04:29.448Z,1.55
2022-10-17T15:06:56.075Z,1.60
2022-10-17T15:09:22.705Z,1.40
2022-10-17T15:11:49.465Z,1.30
2022-10-17T15:14:15.987Z,1.40
2022-10-17T15:16:42.652Z,1.58
2022-10-17T15:19:10.220Z,1.35
2022-10-17T15:21:41.929Z,1.83
2022-10-17T15:24:11.607Z,1.10
2022-10-17T15:26:38.179Z,1.50
2022-10-17T15:29:04.880Z,1.38
2022-10-17T15:31:31.688Z,1.35
2022-10-17T15:33:58.227Z,1.83
2022-10-17T15:36:26.706Z,1.40
2022-10-17T15:38:56.488Z,1.30
2022-10-17T15:41:26.064Z,1.50
2022-10-17T15:43:52.942Z,1.65
2022-10-17T15:46:22.859Z,1.25
2022-10-17T15:48:50.124Z,1.30
2022-10-17T15:51:17.325Z,1.40
2022-10-17T15:53:44.154Z,1.60
2022-10-17T15:56:41.141Z,1.73
2022-10-17T15:59:17.142Z,1.42
2022-10-17T16:01:44.492Z,1.85
2022-10-17T16:04:12.640Z,1.63
2022-10-17T16:06:39.633Z,1.50
2022-10-17T16:09:06.150Z,1.80
2022-10-17T16:11:36.123Z,1.80
2022-10-17T16:14:05.776Z,1.50
2022-10-17T16:16:32.542Z,1.80
2022-10-17T16:18:59.064Z,1.83
2022-10-17T16:24:01.269Z,1.80
2022-10-17T16:26:28.860Z,1.90
2022-10-17T16:28:55.666Z,1.77
2022-10-17T16:31:28.904Z,1.55
2022-10-17T16:33:57.472Z,1.60
2022-10-17T16:36:24.379Z,1.90
2022-10-17T16:38:51.576Z,1.70
2022-10-17T16:41:25.038Z,1.50
2022-10-17T16:43:54.515Z,2.00
2022-10-17T16:46:21.838Z,1.70
2022-10-17T16:48:49.026Z,2.00
2022-10-17T16:51:18.419Z,1.90
2022-10-17T16:53:46.568Z,1.90
2022-10-17T16:56:15.983Z,1.60
2022-10-17T16:58:42.797Z,1.80
2022-10-17T17:01:12.575Z,1.63
2022-10-17T17:03:42.249Z,1.77
2022-10-17T17:06:12.683Z,1.95
2022-10-17T17:08:39.607Z,1.80
2022-10-17T17:11:07.716Z,1.83
2022-10-17T17:13:34.791Z,5.45
2022-10-17T17:16:28.590Z,2.22
2022-10-17T17:19:01.631Z,2.40
2022-10-17T17:21:30.187Z,1.90
2022-10-17T17:23:58.738Z,2.33
2022-10-17T17:26:27.901Z,2.20
2022-10-17T17:28:56.692Z,1.92
2022-10-17T17:31:25.703Z,2.10
2022-10-17T17:33:53.340Z,2.20
2022-10-17T17:36:23.014Z,1.95
2022-10-17T17:38:51.149Z,2.50
2022-10-17T17:41:19.836Z,2.00
2022-10-17T17:43:47.682Z,2.20
2022-10-17T17:46:17.265Z,2.15
2022-10-17T17:48:46.402Z,2.30
2022-10-17T17:51:16.170Z,2.05
2022-10-17T17:53:42.976Z,2.33
2022-10-17T17:56:18.539Z,1.90
2022-10-17T17:58:46.921Z,2.20
2022-10-17T18:01:19.204Z,2.30
2022-10-17T18:03:47.059Z,2.33
2022-10-17T18:06:14.007Z,2.47
2022-10-17T18:08:44.929Z,2.15
2022-10-17T18:11:12.291Z,2.47
2022-10-17T18:13:39.494Z,2.10
2022-10-17T18:16:07.053Z,2.40
2022-10-17T18:18:33.660Z,2.40
2022-10-17T18:21:01.484Z,2.53
2022-10-17T18:23:28.207Z,2.35
2022-10-17T18:25:56.974Z,2.42
2022-10-17T18:28:24.355Z,2.25
2022-10-17T18:30:51.163Z,2.60
2022-10-17T18:33:18.097Z,2.40
2022-10-17T18:35:44.841Z,2.70
2022-10-17T18:38:11.544Z,2.50
2022-10-17T18:40:38.557Z,2.42
2022-10-17T18:43:06.907Z,2.20
2022-10-17T18:45:33.641Z,2.53
2022-10-17T18:48:00.296Z,2.63
2022-10-17T18:50:26.929Z,2.58
2022-10-17T18:52:53.689Z,2.20
2022-10-17T18:55:20.301Z,2.70
2022-10-17T18:57:47.893Z,2.20
2022-10-17T19:00:15.255Z,2.53
2022-10-17T19:02:42.553Z,2.45
2022-10-17T19:05:09.293Z,2.78
2022-10-17T19:07:35.931Z,2.72
2022-10-17T19:10:02.719Z,2.50
2022-10-17T19:12:29.353Z,2.60
2022-10-17T19:14:55.903Z,2.40
2022-10-17T19:17:22.586Z,2.38
2022-10-17T19:19:49.180Z,2.38
2022-10-17T19:22:16.003Z,2.75
2022-10-17T19:24:42.578Z,2.38
2022-10-17T19:27:09.149Z,2.80
2022-10-17T19:29:35.670Z,3.38
2022-10-17T19:32:02.398Z,3.70
2022-10-17T19:34:29.584Z,4.15
2022-10-17T19:36:56.165Z,4.47
2022-10-17T19:39:24.279Z,4.95
2022-10-17T19:41:51.821Z,5.20
2022-10-17T19:44:18.626Z,4.82
2022-10-17T19:46:45.592Z,4.40
2022-10-17T19:49:12.868Z,4.40
2022-10-17T19:51:39.691Z,3.80
2022-10-17T19:54:06.320Z,3.92
2022-10-17T19:56:35.513Z,2.97
2022-10-17T19:59:02.240Z,3.45
2022-10-17T20:01:32.061Z,2.88
2022-10-17T20:03:58.648Z,3.38
2022-10-17T20:06:25.970Z,2.95
2022-10-17T20:08:52.839Z,3.22
2022-10-17T20:11:27.107Z,3.17
2022-10-17T20:13:55.611Z,3.20
2022-10-17T20:16:25.069Z,2.80
2022-10-17T20:18:56.497Z,3.00
2022-10-17T20:21:26.753Z,2.97
2022-10-17T20:23:54.366Z,3.03
2022-10-17T20:26:37.738Z,3.42
2022-10-17T20:29:07.772Z,3.20
2022-10-17T20:31:34.829Z,2.90
2022-10-17T20:34:01.585Z,3.00
2022-10-17T20:36:28.181Z,2.80
2022-10-17T20:38:56.693Z,3.17
2022-10-17T20:41:24.698Z,3.25
2022-10-17T20:43:52.837Z,3.83
2022-10-17T20:46:35.815Z,3.85
2022-10-17T20:49:06.845Z,4.22
2022-10-17T20:51:35.438Z,4.13
2022-10-17T20:54:02.426Z,4.85
2022-10-17T20:56:30.666Z,3.70
2022-10-17T20:59:04.372Z,16.30
2022-10-17T21:01:33.554Z,8.10
2022-10-17T21:04:21.470Z,9.43
2022-10-17T21:06:48.839Z,7.55
2022-10-17T21:09:15.449Z,6.78
2022-10-17T21:11:42.104Z,10.27
2022-10-17T21:14:10.498Z,7.72
2022-10-17T21:16:38.881Z,4.55
2022-10-17T21:19:06.015Z,3.65
2022-10-17T21:21:36.284Z,4.28
2022-10-17T21:24:05.852Z,3.85
2022-10-17T21:26:34.212Z,3.63
2022-10-17T21:29:00.816Z,3.53
2022-10-17T21:31:28.046Z,3.03
2022-10-17T21:33:59.387Z,3.00
2022-10-17T21:36:27.898Z,3.17
2022-10-17T21:38:56.962Z,3.00
2022-10-17T21:41:28.647Z,3.00
2022-10-17T21:43:58.273Z,3.22
2022-10-17T21:46:25.496Z,2.85
2022-10-17T21:48:53.100Z,2.90
2022-10-17T21:51:25.132Z,3.10
2022-10-17T21:53:54.623Z,3.00
2022-10-17T21:56:23.525Z,3.05
2022-10-17T21:58:51.211Z,3.00
2022-10-17T22:01:27.213Z,3.28
2022-10-17T22:03:56.856Z,3.17
2022-10-17T22:06:39.231Z,2.80
2022-10-17T22:09:17.040Z,2.78
2022-10-17T22:11:56.734Z,2.97
2022-10-17T22:14:27.486Z,3.13
2022-10-17T22:16:54.827Z,3.50
2022-10-17T22:19:25.187Z,3.08
2022-10-17T22:21:52.239Z,3.00
2022-10-17T22:26:48.085Z,2.70
2022-10-17T22:29:15.475Z,3.15
2022-10-17T22:31:42.647Z,3.15
2022-10-17T22:34:11.998Z,2.90
2022-10-17T22:36:38.628Z,2.72
2022-10-17T22:39:05.181Z,2.92
2022-10-17T22:41:31.872Z,2.97
2022-10-17T22:43:58.411Z,2.90
2022-10-17T22:46:25.475Z,2.90
2022-10-17T22:48:51.975Z,3.25
2022-10-17T22:51:18.807Z,2.85
2022-10-17T22:53:45.384Z,2.80
2022-10-17T22:56:17.332Z,2.75
2022-10-17T22:58:44.536Z,3.05
2022-10-17T23:01:17.726Z,2.90
2022-10-17T23:03:44.574Z,3.10
2022-10-17T23:06:11.575Z,3.10
2022-10-17T23:08:38.754Z,2.83
2022-10-17T23:11:06.208Z,3.10
2022-10-17T23:13:33.026Z,2.75
2022-10-17T23:15:59.795Z,2.92
2022-10-17T23:18:26.601Z,3.10
2022-10-17T23:20:53.565Z,3.20
2022-10-17T23:23:20.740Z,3.20
2022-10-17T23:25:47.322Z,2.92
2022-10-17T23:28:14.160Z,3.30
2022-10-17T23:30:41.099Z,2.85
2022-10-17T23:33:08.067Z,3.17
2022-10-17T23:35:35.516Z,2.83
2022-10-17T23:38:02.186Z,2.92
2022-10-17T23:40:29.739Z,3.10
2022-10-17T23:42:56.617Z,2.90
2022-10-17T23:45:23.199Z,2.90
2022-10-17T23:47:49.831Z,3.15
2022-10-17T23:50:16.481Z,3.15
2022-10-17T23:52:43.514Z,3.15
2022-10-17T23:55:10.379Z,3.00
2022-10-17T23:57:37.072Z,3.00
